createdAt,value
2018-12-10T00:00:52.560Z,73.63
2018-12-10T00:03:55.785Z,74.37
2018-12-10T00:06:59.122Z,74.48
2018-12-10T00:10:02.373Z,74.94
2018-12-10T00:13:05.593Z,74.54
2018-12-10T00:16:08.891Z,74.88
2018-12-10T00:19:12.147Z,75.88
2018-12-10T00:22:15.369Z,76.14
2018-12-10T00:25:18.652Z,75.59
2018-12-10T00:28:21.943Z,75.10
2018-12-10T00:31:25.172Z,74.68
2018-12-10T00:34:28.539Z,75.52
2018-12-10T00:37:31.777Z,74.27
2018-12-10T00:40:35.015Z,74.38
2018-12-10T00:43:40.949Z,74.85
2018-12-10T00:50:05.755Z,74.73
2018-12-10T00:53:09.760Z,74.99
2018-12-10T00:56:13.021Z,75.36
2018-12-10T00:59:16.245Z,75.75
2018-12-10T01:02:19.519Z,76.04
2018-12-10T01:05:22.844Z,75.79
2018-12-10T01:08:26.051Z,75.42
2018-12-10T01:11:29.293Z,75.58
2018-12-10T01:14:32.518Z,74.63
2018-12-10T01:17:35.736Z,74.82
2018-12-10T01:20:38.996Z,73.83
2018-12-10T01:23:42.217Z,74.17
2018-12-10T01:26:45.432Z,74.30
2018-12-10T01:29:48.661Z,75.02
2018-12-10T01:32:51.884Z,73.91
2018-12-10T01:35:55.105Z,73.86
2018-12-10T01:38:58.338Z,74.16
2018-12-10T01:42:01.637Z,73.74
2018-12-10T01:45:07.448Z,73.53
2018-12-10T01:48:10.753Z,73.44
2018-12-10T01:51:13.979Z,73.29
2018-12-10T01:54:17.203Z,73.68
2018-12-10T01:57:20.444Z,73.14
2018-12-10T02:00:23.708Z,72.95
2018-12-10T02:03:26.957Z,73.46
2018-12-10T02:06:30.213Z,72.86
2018-12-10T02:09:33.489Z,72.09
2018-12-10T02:12:36.709Z,72.17
2018-12-10T02:15:39.929Z,72.27
2018-12-10T02:18:43.204Z,72.39
2018-12-10T02:21:46.409Z,72.21
2018-12-10T02:24:49.632Z,71.84
2018-12-10T02:27:52.869Z,72.01
2018-12-10T02:30:56.127Z,71.17
2018-12-10T02:33:59.461Z,71.37
2018-12-10T02:37:02.768Z,71.55
2018-12-10T02:40:06.910Z,71.72
2018-12-10T02:43:10.205Z,71.21
2018-12-10T02:46:13.421Z,70.69
2018-12-10T02:49:16.649Z,70.91
2018-12-10T02:52:19.871Z,71.08
2018-12-10T02:55:23.185Z,71.27
2018-12-10T02:58:26.414Z,72.01
2018-12-10T03:01:29.666Z,71.78
2018-12-10T03:04:33.005Z,71.87
2018-12-10T03:07:36.233Z,71.37
2018-12-10T03:10:39.460Z,72.05
2018-12-10T03:13:42.753Z,72.47
2018-12-10T03:16:45.972Z,71.79
2018-12-10T03:19:49.252Z,72.17
2018-12-10T03:22:52.465Z,71.64
2018-12-10T03:25:55.764Z,71.03
2018-12-10T03:28:59.039Z,71.07
2018-12-10T03:32:02.251Z,70.19
2018-12-10T03:35:05.629Z,70.18
2018-12-10T03:38:08.962Z,70.22
2018-12-10T03:41:12.330Z,70.83
2018-12-10T03:44:15.666Z,70.09
2018-12-10T03:47:18.912Z,70.98
2018-12-10T03:50:22.169Z,69.97
2018-12-10T03:53:25.399Z,71.34
2018-12-10T03:56:28.739Z,71.70
2018-12-10T03:59:32.089Z,71.32
2018-12-10T04:02:35.349Z,71.58
2018-12-10T04:05:38.662Z,72.34
2018-12-10T04:08:41.909Z,72.50
2018-12-10T04:11:45.143Z,73.58
2018-12-10T04:14:48.460Z,73.88
2018-12-10T04:17:51.694Z,74.13
2018-12-10T04:20:54.948Z,73.79
2018-12-10T04:23:58.170Z,74.06
2018-12-10T04:27:01.471Z,73.92
2018-12-10T04:30:05.783Z,73.83
2018-12-10T04:33:09.099Z,72.83
2018-12-10T04:36:12.314Z,73.16
2018-12-10T04:39:15.618Z,74.00
2018-12-10T04:42:18.889Z,73.98
2018-12-10T04:45:22.253Z,74.21
2018-12-10T04:48:25.488Z,74.13
2018-12-10T04:51:28.836Z,74.01
2018-12-10T04:54:32.060Z,73.39
2018-12-10T04:57:35.318Z,73.54
2018-12-10T05:00:38.653Z,74.36
2018-12-10T05:03:41.954Z,74.10
2018-12-10T05:06:45.157Z,74.03
2018-12-10T05:09:48.373Z,73.46
2018-12-10T05:12:51.595Z,73.51
2018-12-10T05:15:54.816Z,73.92
2018-12-10T05:18:58.037Z,73.94
2018-12-10T05:22:01.351Z,73.46
2018-12-10T05:25:04.957Z,73.36
2018-12-10T05:28:08.200Z,73.57
2018-12-10T05:31:11.456Z,74.12
2018-12-10T05:34:14.688Z,74.79
2018-12-10T05:37:17.960Z,75.27
2018-12-10T05:40:21.206Z,75.93
2018-12-10T05:43:24.462Z,76.85
2018-12-10T05:46:27.680Z,77.15
2018-12-10T05:49:30.901Z,76.85
2018-12-10T05:52:34.157Z,78.20
2018-12-10T05:55:37.381Z,76.80
2018-12-10T05:58:40.639Z,76.83
2018-12-10T06:01:43.896Z,76.47
2018-12-10T06:04:47.092Z,76.16
2018-12-10T06:07:50.349Z,76.68
2018-12-10T06:10:53.632Z,76.49
2018-12-10T06:13:56.869Z,76.36
2018-12-10T06:17:00.121Z,76.10
2018-12-10T06:20:05.022Z,76.50
2018-12-10T06:23:08.222Z,77.66
2018-12-10T06:26:11.502Z,77.58
2018-12-10T06:29:14.712Z,77.11
2018-12-10T06:32:17.975Z,76.97
2018-12-10T06:35:21.234Z,76.26
2018-12-10T06:38:24.455Z,76.38
2018-12-10T06:41:27.740Z,76.45
2018-12-10T06:44:31.038Z,76.95
2018-12-10T06:47:34.375Z,76.77
2018-12-10T06:50:37.571Z,77.43
2018-12-10T06:53:40.805Z,77.78
2018-12-10T06:56:44.072Z,77.78
2018-12-10T06:59:47.300Z,78.17
2018-12-10T07:02:50.561Z,78.50
2018-12-10T07:05:53.841Z,79.05
2018-12-10T07:08:57.144Z,78.71
2018-12-10T07:12:00.357Z,77.81
2018-12-10T07:15:04.113Z,78.32
2018-12-10T07:18:07.423Z,78.81
2018-12-10T07:21:10.636Z,78.33
2018-12-10T07:24:13.873Z,77.43
2018-12-10T07:27:17.123Z,77.73
2018-12-10T07:30:20.326Z,77.70
2018-12-10T07:33:23.540Z,77.55
2018-12-10T07:36:26.785Z,77.10
2018-12-10T07:39:30.012Z,76.72
2018-12-10T07:42:33.228Z,75.73
2018-12-10T07:45:36.509Z,75.14
2018-12-10T07:48:39.713Z,74.97
2018-12-10T07:51:43.098Z,75.49
2018-12-10T07:54:46.304Z,74.89
2018-12-10T07:57:49.593Z,74.16
2018-12-10T08:00:52.856Z,74.95
2018-12-10T08:03:56.082Z,73.58
2018-12-10T08:06:59.292Z,73.08
2018-12-10T08:10:02.542Z,73.96
2018-12-10T08:13:05.821Z,73.83
2018-12-10T08:16:09.171Z,73.25
2018-12-10T08:19:12.562Z,73.24
2018-12-10T08:22:15.756Z,72.49
2018-12-10T08:25:18.990Z,72.62
2018-12-10T08:28:22.215Z,72.93
2018-12-10T08:31:25.448Z,72.96
2018-12-10T08:34:28.772Z,71.50
2018-12-10T08:37:32.048Z,71.41
2018-12-10T08:40:35.276Z,70.40
2018-12-10T08:43:38.538Z,71.48
2018-12-10T08:46:41.737Z,71.36
2018-12-10T08:49:44.994Z,71.03
2018-12-10T08:52:48.200Z,71.60
2018-12-10T08:55:51.444Z,71.53
2018-12-10T08:58:54.720Z,71.08
2018-12-10T09:01:57.971Z,71.88
2018-12-10T09:05:01.208Z,71.24
2018-12-10T09:08:04.465Z,72.05
2018-12-10T09:11:07.714Z,71.72
2018-12-10T09:14:10.933Z,71.58
2018-12-10T09:17:14.265Z,71.19
2018-12-10T09:20:17.544Z,70.62
2018-12-10T09:23:20.788Z,71.14
2018-12-10T09:26:24.501Z,72.04
2018-12-10T09:29:27.766Z,70.73
2018-12-10T09:32:31.089Z,70.84
2018-12-10T09:35:34.297Z,70.35
2018-12-10T09:38:37.546Z,69.30
2018-12-10T09:41:40.800Z,67.92
2018-12-10T09:44:44.027Z,65.41
2018-12-10T09:47:47.269Z,66.47
2018-12-10T09:50:50.480Z,66.35
2018-12-10T09:53:53.760Z,65.79
2018-12-10T09:56:56.954Z,65.69
2018-12-10T10:00:00.217Z,65.60
2018-12-10T10:03:03.418Z,65.20
2018-12-10T10:06:06.673Z,65.33
2018-12-10T10:09:09.878Z,65.78
2018-12-10T10:12:13.236Z,67.58
2018-12-10T10:15:16.475Z,66.80
2018-12-10T10:18:19.876Z,67.25
2018-12-10T10:21:23.129Z,66.69
2018-12-10T10:24:26.366Z,67.65
2018-12-10T10:27:29.584Z,65.45
2018-12-10T10:30:32.815Z,66.77
2018-12-10T10:33:36.038Z,66.77
2018-12-10T10:36:39.292Z,65.64
2018-12-10T10:39:42.518Z,66.70
2018-12-10T10:42:45.795Z,67.32
2018-12-10T10:45:49.005Z,67.85
2018-12-10T10:48:52.412Z,67.93
2018-12-10T10:51:55.683Z,68.02
2018-12-10T10:54:58.933Z,68.23
2018-12-10T10:58:02.260Z,68.12
2018-12-10T11:01:10.968Z,67.85
2018-12-10T11:04:14.391Z,68.85
2018-12-10T11:07:17.590Z,67.49
2018-12-10T11:10:20.898Z,68.73
2018-12-10T11:13:24.094Z,67.95
2018-12-10T11:16:27.401Z,66.96
2018-12-10T11:19:30.620Z,66.91
2018-12-10T11:22:33.952Z,67.74
2018-12-10T11:25:37.183Z,67.77
2018-12-10T11:28:40.444Z,67.08
2018-12-10T11:31:43.705Z,67.17
2018-12-10T11:34:47.089Z,66.84
2018-12-10T11:37:50.470Z,66.73
2018-12-10T11:40:53.749Z,67.07
2018-12-10T11:43:56.981Z,66.49
2018-12-10T11:47:00.229Z,66.31
2018-12-10T11:50:05.244Z,66.36
2018-12-10T11:53:08.533Z,67.06
2018-12-10T11:56:11.854Z,67.52
2018-12-10T11:59:15.067Z,67.77
2018-12-10T12:02:18.285Z,67.28
2018-12-10T12:05:21.536Z,66.04
2018-12-10T12:08:24.769Z,66.21
2018-12-10T12:11:27.976Z,66.79
2018-12-10T12:14:31.189Z,67.29
2018-12-10T12:17:34.535Z,66.70
2018-12-10T12:20:37.752Z,66.81
2018-12-10T12:23:40.985Z,65.17
2018-12-10T12:26:45.625Z,65.40
2018-12-10T12:29:49.077Z,65.67
2018-12-10T12:32:52.375Z,65.37
2018-12-10T12:35:55.700Z,65.53
2018-12-10T12:38:59.001Z,64.95
2018-12-10T12:42:02.267Z,64.98
2018-12-10T12:45:06.030Z,64.71
2018-12-10T12:48:09.361Z,65.20
2018-12-10T12:51:12.599Z,64.51
2018-12-10T12:54:15.924Z,64.21
2018-12-10T12:57:19.179Z,65.54
2018-12-10T13:00:26.980Z,64.32
2018-12-10T13:03:27.682Z,65.17
2018-12-10T13:06:30.924Z,65.69
2018-12-10T13:09:34.144Z,67.59
2018-12-10T13:12:37.429Z,66.12
2018-12-10T13:15:40.676Z,57.09
2018-12-10T13:18:43.942Z,48.89
2018-12-10T13:21:47.208Z,46.68
2018-12-10T13:24:50.438Z,49.43
2018-12-10T13:27:53.691Z,53.48
2018-12-10T13:30:56.930Z,54.66
2018-12-10T13:34:00.151Z,53.99
2018-12-10T13:37:03.458Z,52.18
2018-12-10T13:40:07.821Z,53.29
2018-12-10T13:43:11.056Z,52.01
2018-12-10T13:46:15.459Z,54.99
2018-12-10T13:49:18.805Z,57.13
2018-12-10T13:52:22.025Z,58.28
2018-12-10T13:55:28.915Z,60.44
2018-12-10T13:58:30.749Z,61.44
2018-12-10T14:01:34.009Z,60.55
2018-12-10T14:07:52.705Z,58.67
2018-12-10T14:10:56.008Z,55.40
2018-12-10T14:13:59.220Z,55.92
2018-12-10T14:17:02.555Z,56.70
2018-12-10T14:20:06.193Z,58.12
2018-12-10T14:23:09.504Z,59.22
2018-12-10T14:26:12.716Z,60.22
2018-12-10T14:29:15.977Z,60.37
2018-12-10T14:32:19.202Z,60.47
2018-12-10T14:35:22.412Z,59.36
2018-12-10T14:38:25.665Z,60.68
2018-12-10T14:41:28.932Z,60.85
2018-12-10T14:44:32.153Z,61.20
2018-12-10T14:47:35.444Z,62.16
2018-12-10T14:50:38.713Z,62.39
2018-12-10T14:53:42.066Z,62.86
2018-12-10T14:56:45.292Z,63.07
2018-12-10T14:59:48.516Z,63.12
2018-12-10T15:02:51.746Z,64.52
2018-12-10T15:05:55.054Z,65.43
2018-12-10T15:08:58.254Z,65.19
2018-12-10T15:12:01.517Z,64.79
2018-12-10T15:15:05.804Z,63.63
2018-12-10T15:18:09.028Z,62.62
2018-12-10T15:21:12.278Z,64.10
2018-12-10T15:24:15.599Z,65.23
2018-12-10T15:27:18.840Z,67.10
2018-12-10T15:30:22.063Z,67.45
2018-12-10T15:33:25.318Z,67.67
2018-12-10T15:36:28.570Z,68.37
2018-12-10T15:39:31.931Z,69.18
2018-12-10T15:42:35.159Z,69.35
2018-12-10T15:45:38.380Z,69.95
2018-12-10T15:48:41.604Z,69.89
2018-12-10T15:51:44.856Z,70.06
2018-12-10T15:54:48.077Z,70.49
2018-12-10T15:57:51.304Z,70.83
2018-12-10T16:00:54.602Z,71.40
2018-12-10T16:03:57.813Z,71.84
2018-12-10T16:07:01.087Z,72.13
2018-12-10T16:10:07.565Z,72.24
2018-12-10T16:13:10.817Z,71.64
2018-12-10T16:16:14.076Z,71.49
2018-12-10T16:19:17.297Z,71.18
2018-12-10T16:22:20.516Z,71.30
2018-12-10T16:25:23.747Z,71.36
2018-12-10T16:28:27.040Z,70.83
2018-12-10T16:31:30.246Z,70.45
2018-12-10T16:34:33.609Z,71.34
2018-12-10T16:37:36.920Z,70.19
2018-12-10T16:40:40.126Z,69.98
2018-12-10T16:43:43.359Z,70.23
2018-12-10T16:46:46.642Z,69.95
2018-12-10T16:49:49.893Z,70.68
2018-12-10T16:52:53.143Z,71.08
2018-12-10T16:55:56.385Z,71.21
2018-12-10T16:58:59.614Z,71.80
2018-12-10T17:02:03.169Z,71.46
2018-12-10T17:05:06.886Z,70.74
2018-12-10T17:08:10.214Z,70.83
2018-12-10T17:11:13.420Z,70.51
2018-12-10T17:14:17.013Z,70.57
2018-12-10T17:17:20.233Z,70.89
2018-12-10T17:20:23.605Z,70.44
2018-12-10T17:23:27.004Z,69.89
2018-12-10T17:26:30.265Z,70.09
2018-12-10T17:29:33.599Z,69.45
2018-12-10T17:32:36.869Z,68.45
2018-12-10T17:35:40.209Z,68.21
2018-12-10T17:38:43.428Z,68.27
2018-12-10T17:41:46.684Z,68.38
2018-12-10T17:44:49.902Z,68.44
2018-12-10T17:47:53.214Z,68.15
2018-12-10T17:50:56.548Z,68.00
2018-12-10T17:54:00.180Z,67.84
2018-12-10T17:57:03.398Z,67.38
2018-12-10T18:00:09.104Z,67.51
2018-12-10T18:03:12.352Z,68.21
2018-12-10T18:06:15.651Z,68.47
2018-12-10T18:09:18.888Z,68.23
2018-12-10T18:12:22.181Z,67.93
2018-12-10T18:15:25.518Z,68.20
2018-12-10T18:18:28.745Z,67.19
2018-12-10T18:21:32.028Z,67.46
2018-12-10T18:24:35.317Z,67.13
2018-12-10T18:27:38.599Z,67.09
2018-12-10T18:30:42.188Z,67.26
2018-12-10T18:33:45.408Z,66.84
2018-12-10T18:36:48.695Z,67.36
2018-12-10T18:39:51.897Z,67.48
2018-12-10T18:42:55.187Z,68.21
2018-12-10T18:45:58.399Z,68.94
2018-12-10T18:49:01.764Z,69.05
2018-12-10T18:52:08.049Z,69.69
2018-12-10T18:55:11.310Z,71.30
2018-12-10T18:58:14.539Z,71.07
2018-12-10T19:01:17.788Z,70.94
2018-12-10T19:04:21.012Z,72.60
2018-12-10T19:07:24.233Z,74.71
2018-12-10T19:10:27.457Z,76.21
2018-12-10T19:13:30.717Z,75.84
2018-12-10T19:16:33.966Z,76.57
2018-12-10T19:19:37.211Z,77.25
2018-12-10T19:22:40.421Z,77.06
2018-12-10T19:25:43.762Z,77.41
2018-12-10T19:28:46.981Z,77.30
2018-12-10T19:31:50.235Z,77.17
2018-12-10T19:34:53.481Z,76.98
2018-12-10T19:37:56.705Z,78.01
2018-12-10T19:40:59.963Z,77.70
2018-12-10T19:44:03.263Z,77.23
2018-12-10T19:47:06.464Z,76.43
2018-12-10T19:50:09.840Z,76.98
2018-12-10T19:53:13.073Z,76.00
2018-12-10T19:56:16.328Z,76.67
2018-12-10T19:59:19.572Z,77.24
2018-12-10T20:02:22.812Z,77.41
2018-12-10T20:08:47.180Z,79.01
2018-12-10T20:11:50.511Z,78.14
2018-12-10T20:14:53.732Z,78.23
2018-12-10T20:17:57.399Z,78.13
2018-12-10T20:21:00.924Z,78.93
2018-12-10T20:24:04.400Z,78.21
2018-12-10T20:27:07.782Z,77.61
2018-12-10T20:30:11.278Z,77.23
2018-12-10T20:33:14.873Z,77.99
2018-12-10T20:36:18.293Z,77.93
2018-12-10T20:39:21.585Z,78.31
2018-12-10T20:42:25.772Z,78.12
2018-12-10T20:45:28.997Z,78.19
2018-12-10T20:48:32.266Z,77.89
2018-12-10T20:51:35.547Z,78.60
2018-12-10T20:54:38.987Z,77.81
2018-12-10T20:57:42.225Z,78.01
2018-12-10T21:00:45.468Z,77.90
2018-12-10T21:03:48.704Z,77.93
2018-12-10T21:06:51.945Z,77.99
2018-12-10T21:09:55.172Z,78.22
2018-12-10T21:12:58.402Z,78.44
2018-12-10T21:16:01.692Z,79.04
2018-12-10T21:19:04.906Z,78.82
2018-12-10T21:22:08.201Z,78.88
2018-12-10T21:25:11.520Z,78.58
2018-12-10T21:28:14.768Z,78.52
2018-12-10T21:31:18.001Z,79.41
2018-12-10T21:34:21.224Z,79.00
2018-12-10T21:37:24.495Z,79.00
2018-12-10T21:40:27.823Z,79.69
2018-12-10T21:43:31.161Z,80.04
2018-12-10T21:46:34.378Z,81.41
2018-12-10T21:49:37.606Z,80.79
2018-12-10T21:52:40.833Z,80.26
2018-12-10T21:55:44.068Z,80.31
2018-12-10T21:58:47.294Z,78.89
2018-12-10T22:01:50.852Z,79.03
2018-12-10T22:04:54.064Z,78.34
2018-12-10T22:07:57.289Z,78.96
2018-12-10T22:11:00.504Z,77.85
2018-12-10T22:14:03.790Z,76.47
2018-12-10T22:17:07.015Z,78.46
2018-12-10T22:20:10.262Z,78.39
2018-12-10T22:23:13.485Z,79.01
2018-12-10T22:26:16.729Z,78.52
2018-12-10T22:29:19.948Z,78.92
2018-12-10T22:32:23.257Z,78.93
2018-12-10T22:35:26.458Z,78.19
2018-12-10T22:38:29.733Z,79.11
2018-12-10T22:41:32.938Z,79.72
2018-12-10T22:44:36.163Z,79.40
2018-12-10T22:47:39.384Z,79.38
2018-12-10T22:50:42.609Z,79.42
2018-12-10T22:53:45.946Z,78.85
2018-12-10T22:56:49.172Z,79.41
2018-12-10T22:59:52.397Z,79.85
2018-12-10T23:02:55.623Z,80.24
2018-12-10T23:05:58.833Z,80.58
2018-12-10T23:09:02.065Z,80.32
2018-12-10T23:12:05.378Z,80.47
2018-12-10T23:15:08.690Z,80.34
2018-12-10T23:18:11.896Z,80.68
2018-12-10T23:21:15.194Z,80.53
2018-12-10T23:24:18.505Z,80.44
2018-12-10T23:27:21.788Z,81.25
2018-12-10T23:30:24.993Z,80.39
2018-12-10T23:33:28.272Z,80.78
2018-12-10T23:36:31.501Z,80.52
2018-12-10T23:39:34.756Z,81.28
2018-12-10T23:45:58.989Z,81.14
2018-12-10T23:49:02.233Z,82.15
2018-12-10T23:52:05.505Z,81.75
2018-12-10T23:55:08.834Z,81.54
2018-12-10T23:58:12.064Z,81.81
